createdAt,value
2017-11-08T00:00:51.450Z,101727
2017-11-08T00:03:18.404Z,101727
2017-11-08T00:05:45.764Z,101725
2017-11-08T00:08:12.918Z,101722
2017-11-08T00:10:39.778Z,101723
2017-11-08T00:13:06.036Z,101718
2017-11-08T00:15:32.221Z,101716
2017-11-08T00:17:58.440Z,101717
2017-11-08T00:20:25.799Z,101712
2017-11-08T00:22:51.995Z,101711
2017-11-08T00:25:18.198Z,101709
2017-11-08T00:27:45.242Z,101705
2017-11-08T00:30:11.473Z,101706
2017-11-08T00:32:37.660Z,101706
2017-11-08T00:35:04.940Z,101702
2017-11-08T00:37:32.314Z,101697
2017-11-08T00:39:58.504Z,101700
2017-11-08T00:42:25.370Z,101700
2017-11-08T00:44:51.836Z,101693
2017-11-08T00:47:19.900Z,101693
2017-11-08T00:49:46.083Z,101696
2017-11-08T00:52:12.266Z,101695
2017-11-08T00:54:39.491Z,101690
2017-11-08T00:57:06.570Z,101691
2017-11-08T00:59:33.612Z,101698
2017-11-08T01:02:01.265Z,101698
2017-11-08T01:04:27.733Z,101687
2017-11-08T01:06:54.592Z,101694
2017-11-08T01:09:20.828Z,101690
2017-11-08T01:11:47.068Z,101686
2017-11-08T01:14:13.759Z,101686
2017-11-08T01:16:40.710Z,101683
2017-11-08T01:19:07.085Z,101687
2017-11-08T01:21:33.338Z,101686
2017-11-08T01:24:00.275Z,101686
2017-11-08T01:26:26.769Z,101688
2017-11-08T01:28:52.966Z,101684
2017-11-08T01:31:21.007Z,101686
2017-11-08T01:33:47.443Z,101680
2017-11-08T01:36:13.662Z,101676
2017-11-08T01:38:42.273Z,101675
2017-11-08T01:41:15.409Z,101676
2017-11-08T01:43:41.613Z,101686
2017-11-08T01:46:07.822Z,101686
2017-11-08T01:48:34.760Z,101682
2017-11-08T01:51:01.721Z,101684
2017-11-08T01:53:27.929Z,101691
2017-11-08T01:55:55.126Z,101684
2017-11-08T01:58:21.398Z,101688
2017-11-08T02:00:47.662Z,101684
2017-11-08T02:03:13.889Z,101685
2017-11-08T02:05:40.100Z,101687
2017-11-08T02:08:07.062Z,101687
2017-11-08T02:10:33.293Z,101681
2017-11-08T02:12:59.491Z,101686
2017-11-08T02:15:25.758Z,101688
2017-11-08T02:17:51.962Z,101685
2017-11-08T02:20:18.963Z,101686
2017-11-08T02:22:45.171Z,101686
2017-11-08T02:25:12.452Z,101688
2017-11-08T02:27:38.657Z,101687
2017-11-08T02:30:04.843Z,101693
2017-11-08T02:32:31.809Z,101695
2017-11-08T02:34:58.012Z,101695
2017-11-08T02:37:24.218Z,101692
2017-11-08T02:39:50.436Z,101694
2017-11-08T02:42:16.635Z,101687
2017-11-08T02:44:42.820Z,101686
2017-11-08T02:47:09.776Z,101687
2017-11-08T02:49:35.990Z,101691
2017-11-08T02:52:02.932Z,101693
2017-11-08T02:54:29.872Z,101687
2017-11-08T02:56:56.820Z,101685
2017-11-08T02:59:23.765Z,101682
2017-11-08T03:01:50.685Z,101679
2017-11-08T03:04:16.877Z,101679
2017-11-08T03:06:43.059Z,101674
2017-11-08T03:09:09.230Z,101684
2017-11-08T03:11:35.412Z,101677
2017-11-08T03:14:01.617Z,101670
2017-11-08T03:16:27.797Z,101661
2017-11-08T03:18:54.008Z,101668
2017-11-08T03:21:20.912Z,101662
2017-11-08T03:23:47.065Z,101663
2017-11-08T03:26:13.285Z,101669
2017-11-08T03:28:39.440Z,101662
2017-11-08T03:31:06.342Z,101661
2017-11-08T03:33:32.566Z,101656
2017-11-08T03:35:58.756Z,101660
2017-11-08T03:38:24.945Z,101660
2017-11-08T03:40:51.147Z,101661
2017-11-08T03:43:18.060Z,101653
2017-11-08T03:45:44.227Z,101650
2017-11-08T03:48:10.578Z,101650
2017-11-08T03:50:37.528Z,101654
2017-11-08T03:53:04.440Z,101652
2017-11-08T03:55:30.637Z,101656
2017-11-08T03:57:56.801Z,101649
2017-11-08T04:00:22.988Z,101653
2017-11-08T04:02:49.167Z,101649
2017-11-08T04:05:16.076Z,101653
2017-11-08T04:07:42.243Z,101651
2017-11-08T04:10:09.188Z,101647
2017-11-08T04:12:36.111Z,101649
2017-11-08T04:15:02.335Z,101649
2017-11-08T04:17:28.564Z,101650
2017-11-08T04:19:54.768Z,101643
2017-11-08T04:22:21.036Z,101650
2017-11-08T04:24:48.008Z,101646
2017-11-08T04:27:14.926Z,101651
2017-11-08T04:29:41.842Z,101655
2017-11-08T04:32:08.245Z,101649
2017-11-08T04:34:34.415Z,101644
2017-11-08T04:37:00.588Z,101640
2017-11-08T04:39:26.791Z,101644
2017-11-08T04:41:53.707Z,101642
2017-11-08T04:44:19.908Z,101647
2017-11-08T04:46:46.132Z,101651
2017-11-08T04:49:12.336Z,101651
2017-11-08T04:51:38.557Z,101651
2017-11-08T04:54:05.725Z,101649
2017-11-08T04:56:31.898Z,101657
2017-11-08T04:58:58.072Z,101660
2017-11-08T05:01:24.268Z,101654
2017-11-08T05:03:50.461Z,101657
2017-11-08T05:06:16.681Z,101668
2017-11-08T05:08:42.871Z,101675
2017-11-08T05:11:09.779Z,101676
2017-11-08T05:13:35.961Z,101678
2017-11-08T05:16:02.189Z,101673
2017-11-08T05:18:28.360Z,101673
2017-11-08T05:20:54.532Z,101681
2017-11-08T05:23:20.833Z,101680
2017-11-08T05:25:47.768Z,101686
2017-11-08T05:28:13.942Z,101687
2017-11-08T05:30:40.482Z,101686
2017-11-08T05:33:06.646Z,101681
2017-11-08T05:35:32.853Z,101685
2017-11-08T05:37:59.366Z,101684
2017-11-08T05:40:25.532Z,101688
2017-11-08T05:42:51.707Z,101687
2017-11-08T05:45:17.909Z,101691
2017-11-08T05:47:44.089Z,101693
2017-11-08T05:50:10.265Z,101694
2017-11-08T05:52:37.187Z,101696
2017-11-08T05:55:03.364Z,101700
2017-11-08T05:57:29.906Z,101694
2017-11-08T05:59:56.101Z,101694
2017-11-08T06:02:23.017Z,101689
2017-11-08T06:04:49.237Z,101699
2017-11-08T06:07:15.397Z,101695
2017-11-08T06:09:42.316Z,101697
2017-11-08T06:12:08.540Z,101703
2017-11-08T06:14:34.739Z,101706
2017-11-08T06:17:00.928Z,101711
2017-11-08T06:19:27.953Z,101710
2017-11-08T06:21:54.119Z,101711
2017-11-08T06:24:20.280Z,101717
2017-11-08T06:26:46.489Z,101720
2017-11-08T06:29:12.652Z,101719
2017-11-08T06:31:38.832Z,101721
2017-11-08T06:34:05.027Z,101720
2017-11-08T06:36:31.198Z,101716
2017-11-08T06:38:57.355Z,101718
2017-11-08T06:41:23.540Z,101719
2017-11-08T06:43:49.701Z,101719
2017-11-08T06:46:15.885Z,101718
2017-11-08T06:48:42.063Z,101727
2017-11-08T06:51:11.197Z,101727
2017-11-08T06:53:38.119Z,101728
2017-11-08T06:56:08.314Z,101731
2017-11-08T06:58:34.517Z,101730
2017-11-08T07:01:00.739Z,101731
2017-11-08T07:03:26.916Z,101735
2017-11-08T07:05:53.102Z,101734
2017-11-08T07:08:19.310Z,101740
2017-11-08T07:10:45.489Z,101737
2017-11-08T07:13:11.672Z,101741
2017-11-08T07:15:37.887Z,101741
2017-11-08T07:18:04.049Z,101748
2017-11-08T07:20:30.216Z,101744
2017-11-08T07:22:56.416Z,101749
2017-11-08T07:25:22.588Z,101750
2017-11-08T07:27:48.787Z,101747
2017-11-08T07:30:15.014Z,101753
2017-11-08T07:32:41.188Z,101750
2017-11-08T07:35:07.504Z,101746
2017-11-08T07:37:34.459Z,101745
2017-11-08T07:40:00.630Z,101743
2017-11-08T07:42:27.360Z,101748
2017-11-08T07:44:54.164Z,101743
2017-11-08T07:47:20.669Z,101753
2017-11-08T07:49:47.683Z,101752
2017-11-08T07:52:14.712Z,101748
2017-11-08T07:54:47.685Z,101752
2017-11-08T07:57:13.854Z,101750
2017-11-08T07:59:46.422Z,101750
2017-11-08T08:02:13.539Z,101755
2017-11-08T08:04:39.714Z,101755
2017-11-08T08:07:09.532Z,101756
2017-11-08T08:09:38.872Z,101754
2017-11-08T08:12:05.386Z,101754
2017-11-08T08:14:31.749Z,101753
2017-11-08T08:16:59.788Z,101756
2017-11-08T08:19:26.035Z,101753
2017-11-08T08:21:52.315Z,101758
2017-11-08T08:24:19.586Z,101749
2017-11-08T08:26:50.852Z,101747
2017-11-08T08:29:17.382Z,101747
2017-11-08T08:31:44.613Z,101756
2017-11-08T08:34:12.103Z,101751
2017-11-08T08:36:38.309Z,101750
2017-11-08T08:39:04.512Z,101755
2017-11-08T08:41:31.500Z,101753
2017-11-08T08:43:58.151Z,101759
2017-11-08T08:46:24.367Z,101753
2017-11-08T08:48:51.532Z,101748
2017-11-08T08:51:18.718Z,101748
2017-11-08T08:53:45.018Z,101741
2017-11-08T08:56:11.208Z,101739
2017-11-08T08:58:39.015Z,101736
2017-11-08T09:01:05.261Z,101739
2017-11-08T09:03:33.965Z,101745
2017-11-08T09:06:01.170Z,101749
2017-11-08T09:08:27.436Z,101743
2017-11-08T09:10:54.379Z,101742
2017-11-08T09:13:21.311Z,101738
2017-11-08T09:15:48.170Z,101748
2017-11-08T09:18:15.152Z,101747
2017-11-08T09:20:42.141Z,101752
2017-11-08T09:23:08.600Z,101759
2017-11-08T09:25:35.366Z,101762
2017-11-08T09:28:02.363Z,101768
2017-11-08T09:30:28.557Z,101775
2017-11-08T09:32:55.624Z,101770
2017-11-08T09:35:22.896Z,101784
2017-11-08T09:37:53.061Z,101778
2017-11-08T09:40:23.269Z,101786
2017-11-08T09:42:50.013Z,101784
2017-11-08T09:45:19.708Z,101781
2017-11-08T09:47:45.953Z,101789
2017-11-08T09:50:13.636Z,101788
2017-11-08T09:52:41.246Z,101794
2017-11-08T09:55:08.562Z,101794
2017-11-08T09:57:36.285Z,101792
2017-11-08T10:00:03.984Z,101789
2017-11-08T10:02:30.221Z,101792
2017-11-08T10:04:59.552Z,101793
2017-11-08T10:07:26.391Z,101792
2017-11-08T10:09:53.498Z,101796
2017-11-08T10:12:20.150Z,101790
2017-11-08T10:14:47.598Z,101790
2017-11-08T10:17:13.883Z,101792
2017-11-08T10:19:40.255Z,101787
2017-11-08T10:22:09.957Z,101784
2017-11-08T10:24:36.996Z,101779
2017-11-08T10:27:03.516Z,101782
2017-11-08T10:29:30.477Z,101782
2017-11-08T10:31:58.289Z,101784
2017-11-08T10:34:24.459Z,101785
2017-11-08T10:36:51.390Z,101782
2017-11-08T10:39:17.658Z,101777
2017-11-08T10:41:44.261Z,101774
2017-11-08T10:44:11.315Z,101773
2017-11-08T10:46:37.970Z,101775
2017-11-08T10:49:04.581Z,101771
2017-11-08T10:51:31.212Z,101762
2017-11-08T10:53:57.972Z,101758
2017-11-08T10:56:24.657Z,101753
2017-11-08T10:58:51.526Z,101759
2017-11-08T11:01:20.311Z,101760
2017-11-08T11:03:46.569Z,101762
2017-11-08T11:06:12.793Z,101770
2017-11-08T11:08:39.555Z,101774
2017-11-08T11:11:06.068Z,101769
2017-11-08T11:13:32.751Z,101768
2017-11-08T11:15:59.429Z,101769
2017-11-08T11:18:26.446Z,101773
2017-11-08T11:20:53.238Z,101774
2017-11-08T11:23:20.073Z,101776
2017-11-08T11:25:50.527Z,101772
2017-11-08T11:28:17.688Z,101773
2017-11-08T11:30:44.565Z,101771
2017-11-08T11:33:11.671Z,101778
2017-11-08T11:35:38.237Z,101777
2017-11-08T11:38:04.951Z,101776
2017-11-08T11:40:31.717Z,101774
2017-11-08T11:42:58.494Z,101772
2017-11-08T11:45:24.750Z,101772
2017-11-08T11:47:51.292Z,101772
2017-11-08T11:50:19.134Z,101775
2017-11-08T11:52:46.195Z,101777
2017-11-08T11:55:13.301Z,101773
2017-11-08T11:57:40.428Z,101777
2017-11-08T12:00:07.200Z,101781
2017-11-08T12:02:34.272Z,101781
2017-11-08T12:05:00.815Z,101786
2017-11-08T12:07:27.409Z,101782
2017-11-08T12:09:54.433Z,101784
2017-11-08T12:12:21.217Z,101785
2017-11-08T12:14:48.180Z,101781
2017-11-08T12:17:15.142Z,101787
2017-11-08T12:19:42.399Z,101788
2017-11-08T12:22:09.486Z,101776
2017-11-08T12:24:37.458Z,101771
2017-11-08T12:27:05.253Z,101765
2017-11-08T12:29:31.441Z,101766
2017-11-08T12:31:58.175Z,101770
2017-11-08T12:34:25.433Z,101770
2017-11-08T12:36:52.339Z,101767
2017-11-08T12:39:19.201Z,101769
2017-11-08T12:41:46.338Z,101762
2017-11-08T12:44:13.371Z,101756
2017-11-08T12:46:40.358Z,101763
2017-11-08T12:49:06.925Z,101757
2017-11-08T12:51:33.663Z,101756
2017-11-08T12:54:00.077Z,101762
2017-11-08T12:56:26.374Z,101760
2017-11-08T12:58:52.572Z,101759
2017-11-08T13:01:18.810Z,101758
2017-11-08T13:03:44.994Z,101759
2017-11-08T13:06:12.752Z,101760
2017-11-08T13:08:38.957Z,101764
2017-11-08T13:11:05.142Z,101763
2017-11-08T13:13:31.538Z,101763
2017-11-08T13:15:58.244Z,101763
2017-11-08T13:18:25.188Z,101765
2017-11-08T13:20:51.605Z,101776
2017-11-08T13:23:18.341Z,101771
2017-11-08T13:25:44.980Z,101773
2017-11-08T13:28:11.774Z,101774
2017-11-08T13:30:38.610Z,101777
2017-11-08T13:33:05.151Z,101779
2017-11-08T13:35:31.852Z,101776
2017-11-08T13:37:58.675Z,101775
2017-11-08T13:40:33.384Z,101781
2017-11-08T13:42:59.878Z,101780
2017-11-08T13:45:27.285Z,101783
2017-11-08T13:47:53.491Z,101778
2017-11-08T13:50:20.153Z,101781
2017-11-08T13:52:46.868Z,101779
2017-11-08T13:55:14.016Z,101782
2017-11-08T13:57:41.046Z,101777
2017-11-08T14:00:07.548Z,101772
2017-11-08T14:02:34.436Z,101771
2017-11-08T14:05:01.761Z,101766
2017-11-08T14:07:28.736Z,101763
2017-11-08T14:09:55.904Z,101772
2017-11-08T14:12:22.705Z,101774
2017-11-08T14:14:49.725Z,101773
2017-11-08T14:17:20.074Z,101769
2017-11-08T14:19:46.329Z,101764
2017-11-08T14:22:13.246Z,101765
2017-11-08T14:24:39.545Z,101768
2017-11-08T14:27:05.809Z,101771
2017-11-08T14:29:33.352Z,101770
2017-11-08T14:31:59.816Z,101771
2017-11-08T14:34:28.163Z,101774
2017-11-08T14:36:55.342Z,101776
2017-11-08T14:39:21.634Z,101779
2017-11-08T14:41:50.274Z,101777
2017-11-08T14:44:17.205Z,101779
2017-11-08T14:46:43.679Z,101782
2017-11-08T14:49:09.850Z,101779
2017-11-08T14:51:36.057Z,101779
2017-11-08T14:54:02.305Z,101776
2017-11-08T14:56:28.480Z,101772
2017-11-08T14:58:54.678Z,101774
2017-11-08T15:01:21.149Z,101778
2017-11-08T15:03:47.323Z,101779
2017-11-08T15:06:15.258Z,101779
2017-11-08T15:08:41.428Z,101780
2017-11-08T15:11:17.589Z,101781
2017-11-08T15:13:43.801Z,101786
2017-11-08T15:16:10.012Z,101786
2017-11-08T15:18:36.187Z,101788
2017-11-08T15:21:03.173Z,101789
2017-11-08T15:23:29.368Z,101797
2017-11-08T15:25:55.552Z,101806
2017-11-08T15:28:21.770Z,101807
2017-11-08T15:30:48.688Z,101808
2017-11-08T15:33:14.872Z,101808
2017-11-08T15:35:41.060Z,101810
2017-11-08T15:38:08.182Z,101813
2017-11-08T15:40:34.358Z,101815
2017-11-08T15:43:00.526Z,101814
2017-11-08T15:45:27.079Z,101814
2017-11-08T15:47:53.253Z,101810
2017-11-08T15:50:19.442Z,101808
2017-11-08T15:52:45.643Z,101802
2017-11-08T15:55:11.861Z,101808
2017-11-08T15:57:38.787Z,101808
2017-11-08T16:00:05.027Z,101810
2017-11-08T16:02:32.306Z,101813
2017-11-08T16:04:58.487Z,101815
2017-11-08T16:07:24.677Z,101806
2017-11-08T16:09:51.123Z,101807
2017-11-08T16:12:17.317Z,101806
2017-11-08T16:14:43.499Z,101813
2017-11-08T16:17:11.343Z,101814
2017-11-08T16:19:40.442Z,101819
2017-11-08T16:22:06.629Z,101817
2017-11-08T16:24:32.843Z,101818
2017-11-08T16:26:59.781Z,101820
2017-11-08T16:29:26.754Z,101822
2017-11-08T16:31:52.974Z,101820
2017-11-08T16:34:19.150Z,101823
2017-11-08T16:36:45.356Z,101819
2017-11-08T16:39:11.778Z,101824
2017-11-08T16:41:37.960Z,101828
2017-11-08T16:44:04.135Z,101834
2017-11-08T16:46:30.589Z,101831
2017-11-08T16:48:56.768Z,101833
2017-11-08T16:51:23.678Z,101833
2017-11-08T16:53:50.162Z,101842
2017-11-08T16:56:16.321Z,101845
2017-11-08T16:58:42.501Z,101851
2017-11-08T17:01:08.693Z,101853
2017-11-08T17:03:34.902Z,101862
2017-11-08T17:06:01.100Z,101863
2017-11-08T17:08:27.289Z,101861
2017-11-08T17:10:54.317Z,101858
2017-11-08T17:13:20.504Z,101855
2017-11-08T17:15:47.854Z,101854
2017-11-08T17:18:14.065Z,101859
2017-11-08T17:20:40.231Z,101863
2017-11-08T17:23:07.261Z,101869
2017-11-08T17:25:33.435Z,101863
2017-11-08T17:27:59.622Z,101861
2017-11-08T17:30:25.884Z,101864
2017-11-08T17:32:52.103Z,101865
2017-11-08T17:35:18.289Z,101865
2017-11-08T17:37:44.837Z,101860
2017-11-08T17:40:11.021Z,101860
2017-11-08T17:42:37.960Z,101860
2017-11-08T17:45:04.925Z,101858
2017-11-08T17:47:31.089Z,101853
2017-11-08T17:49:57.263Z,101856
2017-11-08T17:52:24.445Z,101857
2017-11-08T17:54:50.612Z,101861
2017-11-08T17:57:16.794Z,101857
2017-11-08T17:59:43.333Z,101852
2017-11-08T18:02:09.500Z,101847
2017-11-08T18:04:35.726Z,101849
2017-11-08T18:07:01.948Z,101841
2017-11-08T18:09:28.152Z,101844
2017-11-08T18:11:54.332Z,101834
2017-11-08T18:14:21.265Z,101836
2017-11-08T18:16:47.463Z,101837
2017-11-08T18:19:13.632Z,101843
2017-11-08T18:21:40.918Z,101847
2017-11-08T18:24:07.085Z,101845
2017-11-08T18:26:33.285Z,101846
2017-11-08T18:28:59.485Z,101848
2017-11-08T18:31:25.679Z,101847
2017-11-08T18:33:51.869Z,101850
2017-11-08T18:36:18.289Z,101847
2017-11-08T18:38:44.461Z,101851
2017-11-08T18:41:10.639Z,101853
2017-11-08T18:43:36.816Z,101859
2017-11-08T18:46:02.993Z,101856
2017-11-08T18:48:29.164Z,101850
2017-11-08T18:50:55.617Z,101860
2017-11-08T18:53:22.557Z,101861
2017-11-08T18:55:48.750Z,101868
2017-11-08T18:58:14.960Z,101872
2017-11-08T19:00:41.156Z,101871
2017-11-08T19:03:08.073Z,101870
2017-11-08T19:05:34.266Z,101868
2017-11-08T19:08:00.452Z,101872
2017-11-08T19:10:27.400Z,101876
2017-11-08T19:12:54.334Z,101882
2017-11-08T19:15:21.272Z,101885
2017-11-08T19:17:47.474Z,101889
2017-11-08T19:20:13.765Z,101893
2017-11-08T19:22:39.945Z,101897
2017-11-08T19:25:06.138Z,101894
2017-11-08T19:27:32.658Z,101892
2017-11-08T19:29:58.849Z,101894
2017-11-08T19:32:25.801Z,101899
2017-11-08T19:34:52.788Z,101899
2017-11-08T19:37:18.968Z,101903
2017-11-08T19:39:45.893Z,101902
2017-11-08T19:42:12.105Z,101902
2017-11-08T19:44:38.328Z,101900
2017-11-08T19:47:04.513Z,101897
2017-11-08T19:49:30.743Z,101900
2017-11-08T19:51:56.920Z,101897
2017-11-08T19:54:23.097Z,101896
2017-11-08T19:56:49.350Z,101888
2017-11-08T19:59:15.522Z,101893
2017-11-08T20:01:41.707Z,101891
2017-11-08T20:04:07.900Z,101886
2017-11-08T20:06:34.132Z,101893
2017-11-08T20:09:00.315Z,101893
2017-11-08T20:11:26.526Z,101893
2017-11-08T20:13:52.715Z,101890
2017-11-08T20:16:18.893Z,101898
2017-11-08T20:18:45.120Z,101896
2017-11-08T20:21:11.302Z,101901
2017-11-08T20:23:37.469Z,101899
2017-11-08T20:26:03.829Z,101895
2017-11-08T20:28:30.754Z,101890
2017-11-08T20:30:57.005Z,101891
2017-11-08T20:33:23.970Z,101890
2017-11-08T20:35:50.147Z,101888
2017-11-08T20:38:16.347Z,101885
2017-11-08T20:40:42.533Z,101889
2017-11-08T20:43:09.455Z,101877
2017-11-08T20:45:35.811Z,101878
2017-11-08T20:48:02.751Z,101880
2017-11-08T20:50:29.667Z,101878
2017-11-08T20:52:56.160Z,101881
2017-11-08T20:55:22.339Z,101874
2017-11-08T20:57:48.558Z,101870
2017-11-08T21:00:14.775Z,101869
2017-11-08T21:02:40.961Z,101874
2017-11-08T21:05:07.153Z,101866
2017-11-08T21:07:33.372Z,101867
2017-11-08T21:09:59.580Z,101869
2017-11-08T21:12:26.492Z,101865
2017-11-08T21:14:52.698Z,101864
2017-11-08T21:17:18.893Z,101860
2017-11-08T21:19:45.124Z,101862
2017-11-08T21:22:11.481Z,101860
2017-11-08T21:24:37.664Z,101859
2017-11-08T21:27:04.594Z,101863
2017-11-08T21:29:30.801Z,101864
2017-11-08T21:31:56.962Z,101863
2017-11-08T21:34:23.868Z,101865
2017-11-08T21:36:50.061Z,101867
2017-11-08T21:39:16.247Z,101864
2017-11-08T21:41:43.204Z,101857
2017-11-08T21:44:10.149Z,101852
2017-11-08T21:46:37.066Z,101850
2017-11-08T21:49:03.282Z,101850
2017-11-08T21:51:29.476Z,101848
2017-11-08T21:53:55.703Z,101844
2017-11-08T21:56:21.883Z,101845
2017-11-08T21:58:48.058Z,101847
2017-11-08T22:01:14.247Z,101842
2017-11-08T22:03:40.429Z,101846
2017-11-08T22:06:06.597Z,101845
2017-11-08T22:08:33.172Z,101844
2017-11-08T22:10:59.347Z,101845
2017-11-08T22:13:25.526Z,101841
2017-11-08T22:15:51.705Z,101843
2017-11-08T22:18:17.906Z,101842
2017-11-08T22:20:44.337Z,101840
2017-11-08T22:23:10.511Z,101840
2017-11-08T22:25:37.443Z,101844
2017-11-08T22:28:03.640Z,101845
2017-11-08T22:30:29.825Z,101838
2017-11-08T22:32:56.032Z,101835
2017-11-08T22:35:22.274Z,101840
2017-11-08T22:37:49.214Z,101838
2017-11-08T22:40:15.532Z,101842
2017-11-08T22:42:42.465Z,101840
2017-11-08T22:45:08.656Z,101840
2017-11-08T22:47:34.851Z,101838
2017-11-08T22:50:01.024Z,101837
2017-11-08T22:52:27.213Z,101834
2017-11-08T22:54:53.653Z,101839
2017-11-08T22:57:19.838Z,101832
2017-11-08T22:59:46.009Z,101833
2017-11-08T23:02:12.248Z,101825
2017-11-08T23:04:38.421Z,101820
2017-11-08T23:07:04.585Z,101815
2017-11-08T23:09:30.776Z,101813
2017-11-08T23:11:56.970Z,101803
2017-11-08T23:14:23.153Z,101803
2017-11-08T23:16:50.319Z,101802
2017-11-08T23:19:16.500Z,101801
2017-11-08T23:21:42.681Z,101801
2017-11-08T23:24:08.872Z,101799
2017-11-08T23:26:35.881Z,101795
2017-11-08T23:29:02.085Z,101795
2017-11-08T23:31:28.263Z,101795
2017-11-08T23:33:55.168Z,101795
2017-11-08T23:36:21.570Z,101803
2017-11-08T23:38:47.736Z,101798
2017-11-08T23:41:13.941Z,101799
2017-11-08T23:43:40.137Z,101793
2017-11-08T23:46:06.333Z,101790
2017-11-08T23:48:32.517Z,101788
2017-11-08T23:50:59.777Z,101791
2017-11-08T23:53:25.986Z,101790
2017-11-08T23:55:54.187Z,101786
2017-11-08T23:58:20.355Z,101787
